SWR37F EGLC-LSZH
Flight info
| Callsign | SWR37F |
|---|---|
| Flight time | 1h 15m |
| Altitude | 29000 |
| Route | SOQQA M87 UMTUM L9 KONAN UL607 REMBA DCT LIRSU DCT KRH M150 LAMGO/N0421F270 T721 RILAX |
| Aircraft | A320/M-SDE3FGHIRWY/LB1 |
Departure
| Time | 2026-04-26 07:14 |
|---|---|
| Airport | London City Airport (EGLC) |
Arrival
| Time | 2026-04-26 08:30 |
|---|---|
| Airport | Zürich Airport (LSZH) |
| Time | Latitude | Longitude | Altitude | Speed | Heading |
|---|---|---|---|---|---|
| 2026-04-26 06:56 | 51.50411 | 0.05131 | 29 ft | 0 kts | 329° |
| 2026-04-26 07:11 | 51.50416 | 0.05127 | 25 ft | 5 kts | 329° |
| 2026-04-26 07:11 | 51.50458 | 0.05054 | 27 ft | 9 kts | 290° |
| 2026-04-26 07:12 | 51.50463 | 0.04957 | 27 ft | 10 kts | 273° |
| 2026-04-26 07:12 | 51.50467 | 0.04816 | 25 ft | 16 kts | 272° |
| 2026-04-26 07:12 | 51.50474 | 0.04612 | 25 ft | 17 kts | 273° |
| 2026-04-26 07:12 | 51.50478 | 0.04487 | 25 ft | 8 kts | 277° |
| 2026-04-26 07:13 | 51.50507 | 0.04446 | 25 ft | 5 kts | 351° |
| 2026-04-26 07:13 | 51.50547 | 0.04448 | 28 ft | 8 kts | 32° |
| 2026-04-26 07:13 | 51.50554 | 0.04502 | 27 ft | 3 kts | 93° |
| 2026-04-26 07:13 | 51.50554 | 0.04503 | 27 ft | 0 kts | 93° |
| 2026-04-26 07:14 | 51.50553 | 0.04547 | 25 ft | 28 kts | 93° |
| 2026-04-26 07:14 | 51.50528 | 0.05360 | 26 ft | 115 kts | 93° |
| 2026-04-26 07:14 | 51.50476 | 0.06870 | 456 ft | 138 kts | 93° |
| 2026-04-26 07:14 | 51.50417 | 0.08448 | 1219 ft | 143 kts | 93° |
| 2026-04-26 07:15 | 51.50406 | 0.10146 | 1552 ft | 164 kts | 82° |
| 2026-04-26 07:15 | 51.50821 | 0.11986 | 1907 ft | 189 kts | 60° |
| 2026-04-26 07:15 | 51.51791 | 0.13583 | 2301 ft | 212 kts | 32° |
| 2026-04-26 07:15 | 51.53136 | 0.14622 | 3095 ft | 215 kts | 26° |
| 2026-04-26 07:16 | 51.54476 | 0.15699 | 3938 ft | 215 kts | 37° |
| 2026-04-26 07:16 | 51.55455 | 0.17448 | 4643 ft | 220 kts | 64° |
| 2026-04-26 07:16 | 51.55872 | 0.19924 | 5023 ft | 242 kts | 81° |
| 2026-04-26 07:16 | 51.56152 | 0.22708 | 5563 ft | 259 kts | 81° |
| 2026-04-26 07:17 | 51.56646 | 0.25535 | 6324 ft | 268 kts | 66° |
| 2026-04-26 07:17 | 51.57436 | 0.28285 | 7116 ft | 275 kts | 65° |
| 2026-04-26 07:17 | 51.58263 | 0.31085 | 7926 ft | 279 kts | 64° |
| 2026-04-26 07:17 | 51.59104 | 0.33918 | 8767 ft | 283 kts | 64° |
| 2026-04-26 07:18 | 51.59952 | 0.36786 | 9613 ft | 286 kts | 66° |
| 2026-04-26 07:18 | 51.60464 | 0.39895 | 10412 ft | 291 kts | 87° |
| 2026-04-26 07:18 | 51.60303 | 0.43193 | 10884 ft | 307 kts | 98° |
| 2026-04-26 07:18 | 51.59967 | 0.46709 | 11117 ft | 330 kts | 99° |
| 2026-04-26 07:19 | 51.59514 | 0.50422 | 11531 ft | 345 kts | 108° |
| 2026-04-26 07:19 | 51.58465 | 0.53914 | 12177 ft | 351 kts | 125° |
| 2026-04-26 07:19 | 51.56802 | 0.56804 | 12824 ft | 355 kts | 143° |
| 2026-04-26 07:19 | 51.54650 | 0.58760 | 13557 ft | 356 kts | 162° |
| 2026-04-26 07:20 | 51.52238 | 0.59649 | 14249 ft | 358 kts | 172° |
| 2026-04-26 07:20 | 51.49769 | 0.60268 | 14873 ft | 361 kts | 173° |
| 2026-04-26 07:20 | 51.47268 | 0.60890 | 15492 ft | 365 kts | 173° |
| 2026-04-26 07:20 | 51.44742 | 0.61555 | 16091 ft | 370 kts | 169° |
| 2026-04-26 07:21 | 51.42276 | 0.62842 | 16697 ft | 376 kts | 157° |
| 2026-04-26 07:21 | 51.39994 | 0.64961 | 17282 ft | 383 kts | 144° |
| 2026-04-26 07:21 | 51.38040 | 0.67812 | 17876 ft | 388 kts | 132° |
| 2026-04-26 07:21 | 51.36326 | 0.71184 | 18470 ft | 393 kts | 129° |
| 2026-04-26 07:22 | 51.34607 | 0.74601 | 19008 ft | 396 kts | 129° |
| 2026-04-26 07:22 | 51.32863 | 0.78045 | 19534 ft | 399 kts | 129° |
| 2026-04-26 07:22 | 51.31104 | 0.81503 | 20059 ft | 402 kts | 130° |
| 2026-04-26 07:22 | 51.29329 | 0.84984 | 20596 ft | 405 kts | 130° |
| 2026-04-26 07:23 | 51.27537 | 0.88492 | 21130 ft | 409 kts | 130° |
| 2026-04-26 07:23 | 51.25729 | 0.92023 | 21657 ft | 412 kts | 130° |
| 2026-04-26 07:23 | 51.23905 | 0.95578 | 22197 ft | 416 kts | 130° |
| 2026-04-26 07:23 | 51.22166 | 0.99319 | 22678 ft | 421 kts | 122° |
| 2026-04-26 07:24 | 51.20826 | 1.03489 | 23166 ft | 425 kts | 112° |
| 2026-04-26 07:24 | 51.19937 | 1.08008 | 23649 ft | 429 kts | 102° |
| 2026-04-26 07:24 | 51.19333 | 1.12689 | 24079 ft | 432 kts | 101° |
| 2026-04-26 07:24 | 51.18729 | 1.17333 | 24471 ft | 435 kts | 101° |
| 2026-04-26 07:25 | 51.18107 | 1.22064 | 24851 ft | 437 kts | 102° |
| 2026-04-26 07:25 | 51.17478 | 1.26817 | 25242 ft | 440 kts | 102° |
| 2026-04-26 07:25 | 51.16839 | 1.31605 | 25600 ft | 443 kts | 102° |
| 2026-04-26 07:25 | 51.16262 | 1.36441 | 25976 ft | 445 kts | 96° |
| 2026-04-26 07:26 | 51.15999 | 1.41360 | 26334 ft | 447 kts | 93° |
| 2026-04-26 07:26 | 51.15768 | 1.46305 | 26707 ft | 449 kts | 93° |
| 2026-04-26 07:26 | 51.15534 | 1.51279 | 27060 ft | 451 kts | 93° |
| 2026-04-26 07:26 | 51.15295 | 1.56275 | 27401 ft | 454 kts | 93° |
| 2026-04-26 07:27 | 51.15050 | 1.61298 | 27741 ft | 456 kts | 93° |
| 2026-04-26 07:27 | 51.14798 | 1.66344 | 28076 ft | 458 kts | 93° |
| 2026-04-26 07:27 | 51.14547 | 1.71413 | 28400 ft | 461 kts | 93° |
| 2026-04-26 07:27 | 51.14292 | 1.76513 | 28719 ft | 463 kts | 93° |
| 2026-04-26 07:28 | 51.14037 | 1.81566 | 29021 ft | 465 kts | 93° |
| 2026-04-26 07:28 | 51.13773 | 1.86712 | 29276 ft | 467 kts | 94° |
| 2026-04-26 07:28 | 51.13506 | 1.91825 | 29353 ft | 459 kts | 93° |
| 2026-04-26 07:29 | 51.12977 | 2.01843 | 29345 ft | 451 kts | 93° |
| 2026-04-26 07:29 | 51.12451 | 2.11785 | 29348 ft | 450 kts | 93° |
| 2026-04-26 07:30 | 51.11923 | 2.21738 | 29342 ft | 450 kts | 93° |
| 2026-04-26 07:30 | 51.11382 | 2.31625 | 29338 ft | 450 kts | 94° |
| 2026-04-26 07:31 | 51.10826 | 2.41553 | 29337 ft | 450 kts | 93° |
| 2026-04-26 07:31 | 51.10266 | 2.51464 | 29331 ft | 449 kts | 93° |
| 2026-04-26 07:32 | 51.09694 | 2.61369 | 29326 ft | 449 kts | 93° |
| 2026-04-26 07:32 | 51.08405 | 2.71110 | 29322 ft | 451 kts | 105° |
| 2026-04-26 07:33 | 51.06660 | 2.80691 | 29318 ft | 451 kts | 104° |
| 2026-04-26 07:33 | 51.04916 | 2.90283 | 29350 ft | 451 kts | 104° |
| 2026-04-26 07:34 | 51.03184 | 2.99807 | 29346 ft | 451 kts | 104° |
| 2026-04-26 07:34 | 51.01425 | 3.09387 | 29335 ft | 451 kts | 104° |
| 2026-04-26 07:35 | 50.99660 | 3.18953 | 29325 ft | 452 kts | 104° |
| 2026-04-26 07:35 | 50.97883 | 3.28517 | 29321 ft | 452 kts | 104° |
| 2026-04-26 07:36 | 50.96100 | 3.38069 | 29344 ft | 451 kts | 105° |
| 2026-04-26 07:36 | 50.94309 | 3.47592 | 29344 ft | 450 kts | 105° |
| 2026-04-26 07:37 | 50.92515 | 3.57090 | 29340 ft | 450 kts | 105° |
| 2026-04-26 07:37 | 50.90716 | 3.66574 | 29338 ft | 449 kts | 105° |
| 2026-04-26 07:38 | 50.88916 | 3.75977 | 29333 ft | 449 kts | 105° |
| 2026-04-26 07:38 | 50.87088 | 3.85407 | 29357 ft | 447 kts | 106° |
| 2026-04-26 07:39 | 50.85256 | 3.94788 | 29350 ft | 445 kts | 106° |
| 2026-04-26 07:39 | 50.83432 | 4.04134 | 29343 ft | 444 kts | 106° |
| 2026-04-26 07:40 | 50.81600 | 4.13466 | 29336 ft | 444 kts | 106° |
| 2026-04-26 07:40 | 50.79759 | 4.22792 | 29316 ft | 444 kts | 106° |
| 2026-04-26 07:41 | 50.77919 | 4.32104 | 29317 ft | 444 kts | 106° |
| 2026-04-26 07:41 | 50.76070 | 4.41371 | 29312 ft | 444 kts | 106° |
| 2026-04-26 07:42 | 50.74202 | 4.50681 | 29312 ft | 445 kts | 106° |
| 2026-04-26 07:42 | 50.72326 | 4.59992 | 29313 ft | 445 kts | 107° |
| 2026-04-26 07:43 | 50.70485 | 4.69316 | 29323 ft | 445 kts | 106° |
| 2026-04-26 07:43 | 50.68699 | 4.78639 | 29334 ft | 443 kts | 106° |
| 2026-04-26 07:44 | 50.66913 | 4.87883 | 29332 ft | 442 kts | 106° |
| 2026-04-26 07:44 | 50.64603 | 4.96847 | 29330 ft | 442 kts | 115° |
| 2026-04-26 07:45 | 50.61968 | 5.05586 | 29319 ft | 442 kts | 115° |
| 2026-04-26 07:45 | 50.59324 | 5.14324 | 29331 ft | 441 kts | 115° |
| 2026-04-26 07:46 | 50.56690 | 5.23031 | 29329 ft | 440 kts | 115° |
| 2026-04-26 07:46 | 50.54060 | 5.31717 | 29325 ft | 439 kts | 115° |
| 2026-04-26 07:47 | 50.51417 | 5.40379 | 29308 ft | 439 kts | 116° |
| 2026-04-26 07:47 | 50.48766 | 5.49029 | 29307 ft | 440 kts | 115° |
| 2026-04-26 07:48 | 50.46112 | 5.57682 | 29309 ft | 440 kts | 116° |
| 2026-04-26 07:48 | 50.43470 | 5.66258 | 29309 ft | 439 kts | 116° |
| 2026-04-26 07:49 | 50.40802 | 5.74885 | 29295 ft | 439 kts | 116° |
| 2026-04-26 07:49 | 50.38125 | 5.83497 | 29294 ft | 439 kts | 116° |
| 2026-04-26 07:50 | 50.34115 | 5.96382 | 29278 ft | 439 kts | 116° |
| 2026-04-26 07:50 | 50.31434 | 6.04966 | 29295 ft | 439 kts | 116° |
| 2026-04-26 07:51 | 50.28763 | 6.13469 | 29280 ft | 438 kts | 117° |
| 2026-04-26 07:51 | 50.26071 | 6.22015 | 29279 ft | 438 kts | 117° |
| 2026-04-26 07:52 | 50.23369 | 6.30546 | 29255 ft | 438 kts | 117° |
| 2026-04-26 07:52 | 50.20656 | 6.39071 | 29250 ft | 438 kts | 117° |
| 2026-04-26 07:53 | 50.17605 | 6.47278 | 29251 ft | 437 kts | 129° |
| 2026-04-26 07:53 | 50.13710 | 6.54537 | 29248 ft | 436 kts | 131° |
| 2026-04-26 07:54 | 50.09802 | 6.61761 | 29264 ft | 436 kts | 131° |
| 2026-04-26 07:54 | 50.05924 | 6.68934 | 29265 ft | 436 kts | 131° |
| 2026-04-26 07:55 | 50.02018 | 6.76140 | 29261 ft | 435 kts | 131° |
| 2026-04-26 07:55 | 49.98105 | 6.83321 | 29247 ft | 435 kts | 131° |
| 2026-04-26 07:56 | 49.94176 | 6.90503 | 29247 ft | 436 kts | 132° |
| 2026-04-26 07:56 | 49.90905 | 6.96461 | 29244 ft | 436 kts | 132° |
| 2026-04-26 07:57 | 49.86968 | 7.03621 | 29244 ft | 436 kts | 132° |
| 2026-04-26 07:57 | 49.83025 | 7.10776 | 29256 ft | 436 kts | 132° |
| 2026-04-26 07:58 | 49.79080 | 7.17933 | 29254 ft | 436 kts | 132° |
| 2026-04-26 07:58 | 49.75135 | 7.25079 | 29257 ft | 436 kts | 132° |
| 2026-04-26 07:59 | 49.71210 | 7.32155 | 29261 ft | 436 kts | 133° |
| 2026-04-26 07:59 | 49.67255 | 7.39250 | 29263 ft | 435 kts | 133° |
| 2026-04-26 08:00 | 49.63306 | 7.46329 | 29266 ft | 435 kts | 133° |
| 2026-04-26 08:00 | 49.59352 | 7.53391 | 29256 ft | 435 kts | 133° |
| 2026-04-26 08:01 | 49.55393 | 7.60450 | 29257 ft | 435 kts | 133° |
| 2026-04-26 08:01 | 49.51430 | 7.67493 | 29252 ft | 434 kts | 133° |
| 2026-04-26 08:02 | 49.47475 | 7.74501 | 29256 ft | 434 kts | 134° |
| 2026-04-26 08:02 | 49.43535 | 7.81466 | 29256 ft | 434 kts | 134° |
| 2026-04-26 08:03 | 49.39565 | 7.88461 | 29259 ft | 434 kts | 134° |
| 2026-04-26 08:03 | 49.35594 | 7.95432 | 29262 ft | 433 kts | 134° |
| 2026-04-26 08:04 | 49.31640 | 8.02359 | 29259 ft | 433 kts | 134° |
| 2026-04-26 08:04 | 49.27671 | 8.09309 | 29251 ft | 433 kts | 134° |
| 2026-04-26 08:05 | 49.23694 | 8.16255 | 29252 ft | 434 kts | 134° |
| 2026-04-26 08:05 | 49.19710 | 8.23193 | 29239 ft | 434 kts | 134° |
| 2026-04-26 08:06 | 49.15718 | 8.30124 | 29247 ft | 434 kts | 134° |
| 2026-04-26 08:06 | 49.11716 | 8.37040 | 29240 ft | 435 kts | 134° |
| 2026-04-26 08:07 | 49.07713 | 8.43954 | 29241 ft | 434 kts | 134° |
| 2026-04-26 08:07 | 49.03733 | 8.50803 | 29241 ft | 434 kts | 134° |
| 2026-04-26 08:08 | 48.99719 | 8.57682 | 29236 ft | 434 kts | 134° |
| 2026-04-26 08:08 | 48.95771 | 8.64654 | 29234 ft | 435 kts | 132° |
| 2026-04-26 08:09 | 48.91676 | 8.71363 | 29228 ft | 430 kts | 145° |
| 2026-04-26 08:09 | 48.89171 | 8.73778 | 29231 ft | 425 kts | 157° |
| 2026-04-26 08:09 | 48.86411 | 8.75320 | 29230 ft | 420 kts | 169° |
| 2026-04-26 08:10 | 48.83544 | 8.75968 | 29232 ft | 416 kts | 180° |
| 2026-04-26 08:10 | 48.80669 | 8.75772 | 29222 ft | 412 kts | 191° |
| 2026-04-26 08:10 | 48.75021 | 8.74264 | 29221 ft | 413 kts | 192° |
| 2026-04-26 08:11 | 48.69354 | 8.72762 | 29212 ft | 414 kts | 192° |
| 2026-04-26 08:11 | 48.63683 | 8.71250 | 29226 ft | 414 kts | 192° |
| 2026-04-26 08:12 | 48.58000 | 8.69735 | 29222 ft | 415 kts | 192° |
| 2026-04-26 08:12 | 48.52311 | 8.68232 | 29231 ft | 415 kts | 192° |
| 2026-04-26 08:13 | 48.46615 | 8.66726 | 29223 ft | 415 kts | 192° |
| 2026-04-26 08:13 | 48.40926 | 8.65223 | 29235 ft | 415 kts | 192° |
| 2026-04-26 08:14 | 48.35279 | 8.63697 | 29223 ft | 415 kts | 193° |
| 2026-04-26 08:14 | 48.29616 | 8.61973 | 29217 ft | 415 kts | 194° |
| 2026-04-26 08:15 | 48.23830 | 8.60167 | 28595 ft | 432 kts | 194° |
| 2026-04-26 08:15 | 48.20877 | 8.59260 | 27689 ft | 432 kts | 193° |
| 2026-04-26 08:15 | 48.17936 | 8.58372 | 26937 ft | 430 kts | 193° |
| 2026-04-26 08:16 | 48.15003 | 8.57501 | 26190 ft | 428 kts | 193° |
| 2026-04-26 08:16 | 48.12095 | 8.56644 | 25620 ft | 422 kts | 193° |
| 2026-04-26 08:16 | 48.09232 | 8.55799 | 25070 ft | 417 kts | 193° |
| 2026-04-26 08:16 | 48.06407 | 8.54962 | 24527 ft | 412 kts | 193° |
| 2026-04-26 08:17 | 48.03610 | 8.54130 | 24018 ft | 407 kts | 193° |
| 2026-04-26 08:17 | 48.00850 | 8.53309 | 23462 ft | 403 kts | 193° |
| 2026-04-26 08:17 | 47.98098 | 8.52624 | 22974 ft | 399 kts | 186° |
| 2026-04-26 08:17 | 47.95335 | 8.52692 | 22490 ft | 397 kts | 174° |
| 2026-04-26 08:18 | 47.92646 | 8.53608 | 22005 ft | 396 kts | 162° |
| 2026-04-26 08:18 | 47.90148 | 8.55345 | 21498 ft | 395 kts | 150° |
| 2026-04-26 08:18 | 47.87847 | 8.57569 | 21019 ft | 393 kts | 148° |
| 2026-04-26 08:18 | 47.85563 | 8.59783 | 20521 ft | 391 kts | 148° |
| 2026-04-26 08:19 | 47.83285 | 8.61975 | 20038 ft | 389 kts | 148° |
| 2026-04-26 08:19 | 47.81027 | 8.64141 | 19516 ft | 385 kts | 148° |
| 2026-04-26 08:19 | 47.78810 | 8.66275 | 18966 ft | 372 kts | 148° |
| 2026-04-26 08:19 | 47.76644 | 8.68366 | 18027 ft | 371 kts | 148° |
| 2026-04-26 08:20 | 47.74504 | 8.70381 | 17130 ft | 367 kts | 152° |
| 2026-04-26 08:20 | 47.72146 | 8.71679 | 16343 ft | 359 kts | 171° |
| 2026-04-26 08:20 | 47.69680 | 8.71854 | 15568 ft | 352 kts | 188° |
| 2026-04-26 08:20 | 47.67358 | 8.70922 | 14799 ft | 344 kts | 206° |
| 2026-04-26 08:21 | 47.65358 | 8.69013 | 14024 ft | 339 kts | 224° |
| 2026-04-26 08:21 | 47.63860 | 8.66375 | 13161 ft | 333 kts | 240° |
| 2026-04-26 08:21 | 47.62959 | 8.63261 | 12312 ft | 327 kts | 257° |
| 2026-04-26 08:21 | 47.62693 | 8.59950 | 11460 ft | 322 kts | 273° |
| 2026-04-26 08:22 | 47.63022 | 8.56688 | 10627 ft | 319 kts | 287° |
| 2026-04-26 08:22 | 47.63815 | 8.53663 | 9991 ft | 309 kts | 300° |
| 2026-04-26 08:22 | 47.64942 | 8.51099 | 9754 ft | 287 kts | 310° |
| 2026-04-26 08:22 | 47.66291 | 8.48990 | 9158 ft | 279 kts | 319° |
| 2026-04-26 08:23 | 47.67708 | 8.47035 | 8503 ft | 277 kts | 317° |
| 2026-04-26 08:23 | 47.69082 | 8.45040 | 7759 ft | 277 kts | 308° |
| 2026-04-26 08:23 | 47.69956 | 8.42495 | 7020 ft | 279 kts | 284° |
| 2026-04-26 08:23 | 47.70051 | 8.39639 | 6273 ft | 280 kts | 259° |
| 2026-04-26 08:24 | 47.69344 | 8.36981 | 5523 ft | 279 kts | 233° |
| 2026-04-26 08:24 | 47.67980 | 8.35048 | 5159 ft | 261 kts | 209° |
| 2026-04-26 08:24 | 47.66405 | 8.34111 | 5037 ft | 236 kts | 187° |
| 2026-04-26 08:24 | 47.64821 | 8.33836 | 4956 ft | 227 kts | 181° |
| 2026-04-26 08:25 | 47.63265 | 8.34027 | 4877 ft | 223 kts | 161° |
| 2026-04-26 08:25 | 47.61881 | 8.34953 | 4788 ft | 214 kts | 142° |
| 2026-04-26 08:25 | 47.60786 | 8.36353 | 4701 ft | 204 kts | 135° |
| 2026-04-26 08:25 | 47.59763 | 8.37763 | 4524 ft | 197 kts | 134° |
| 2026-04-26 08:26 | 47.58768 | 8.39131 | 4257 ft | 194 kts | 134° |
| 2026-04-26 08:26 | 47.57778 | 8.40494 | 3989 ft | 193 kts | 135° |
| 2026-04-26 08:26 | 47.56818 | 8.41810 | 3744 ft | 181 kts | 134° |
| 2026-04-26 08:26 | 47.55911 | 8.43054 | 3506 ft | 174 kts | 134° |
| 2026-04-26 08:27 | 47.55034 | 8.44257 | 3288 ft | 169 kts | 133° |
| 2026-04-26 08:27 | 47.54213 | 8.45382 | 3067 ft | 157 kts | 133° |
| 2026-04-26 08:27 | 47.53434 | 8.46448 | 2880 ft | 146 kts | 133° |
| 2026-04-26 08:27 | 47.52701 | 8.47454 | 2671 ft | 141 kts | 133° |
| 2026-04-26 08:28 | 47.51987 | 8.48432 | 2486 ft | 138 kts | 133° |
| 2026-04-26 08:28 | 47.51280 | 8.49398 | 2235 ft | 139 kts | 134° |
| 2026-04-26 08:28 | 47.50566 | 8.50378 | 2079 ft | 141 kts | 134° |
| 2026-04-26 08:28 | 47.49842 | 8.51366 | 1910 ft | 142 kts | 135° |
| 2026-04-26 08:29 | 47.49115 | 8.52347 | 1693 ft | 141 kts | 132° |
| 2026-04-26 08:29 | 47.48393 | 8.53336 | 1508 ft | 142 kts | 132° |
| 2026-04-26 08:29 | 47.47693 | 8.54315 | 1409 ft | 128 kts | 135° |
| 2026-04-26 08:29 | 47.47152 | 8.55054 | 1406 ft | 82 kts | 137° |
| 2026-04-26 08:30 | 47.46815 | 8.55510 | 1405 ft | 54 kts | 138° |
| 2026-04-26 08:30 | 47.46597 | 8.55681 | 1405 ft | 25 kts | 169° |
| 2026-04-26 08:30 | 47.46441 | 8.55731 | 1401 ft | 17 kts | 166° |
| 2026-04-26 08:30 | 47.46349 | 8.55804 | 1402 ft | 15 kts | 138° |
| 2026-04-26 08:31 | 47.46265 | 8.55921 | 1398 ft | 19 kts | 136° |
| 2026-04-26 08:31 | 47.46159 | 8.56066 | 1401 ft | 23 kts | 137° |
| 2026-04-26 08:31 | 47.46036 | 8.56233 | 1403 ft | 26 kts | 137° |
| 2026-04-26 08:31 | 47.45930 | 8.56314 | 1398 ft | 16 kts | 184° |
| 2026-04-26 08:32 | 47.45801 | 8.56294 | 1400 ft | 20 kts | 186° |
| 2026-04-26 08:32 | 47.45699 | 8.56278 | 1406 ft | 15 kts | 186° |
| 2026-04-26 08:32 | 47.45638 | 8.56268 | 1399 ft | 0 kts | 186° |
| 2026-04-26 08:32 | 47.45612 | 8.56264 | 1402 ft | 8 kts | 186° |
| 2026-04-26 08:33 | 47.45545 | 8.56255 | 1397 ft | 11 kts | 185° |
| 2026-04-26 08:33 | 47.45478 | 8.56189 | 1401 ft | 13 kts | 265° |
| 2026-04-26 08:33 | 47.45489 | 8.56028 | 1397 ft | 18 kts | 276° |
| 2026-04-26 08:33 | 47.45481 | 8.55958 | 1400 ft | 1 kts | 186° |
| 2026-04-26 08:34 | 47.45443 | 8.55952 | 1397 ft | 9 kts | 186° |
| 2026-04-26 08:34 | 47.45413 | 8.55947 | 1397 ft | 1 kts | 185° |
| 2026-04-26 08:34 | 47.45412 | 8.55947 | 1397 ft | 0 kts | 185° |